createdAt,value
2023-05-21T00:01:07.883Z,96709.69
2023-05-21T00:03:36.151Z,96719.00
2023-05-21T00:06:03.815Z,96713.66
2023-05-21T00:08:30.694Z,96706.72
2023-05-21T00:10:57.245Z,96710.41
2023-05-21T00:13:23.826Z,96699.78
2023-05-21T00:15:50.488Z,96704.34
2023-05-21T00:18:17.006Z,96692.47
2023-05-21T00:20:43.599Z,96702.28
2023-05-21T00:23:10.362Z,96693.94
2023-05-21T00:25:37.966Z,96700.09
2023-05-21T00:28:04.887Z,96694.19
2023-05-21T00:30:32.412Z,96697.06
2023-05-21T00:33:02.469Z,96683.13
2023-05-21T00:35:29.531Z,96685.63
2023-05-21T00:37:56.327Z,96688.94
2023-05-21T00:40:22.896Z,96685.16
2023-05-21T00:42:49.917Z,96686.13
2023-05-21T00:45:16.490Z,96686.19
2023-05-21T00:47:43.946Z,96678.00
2023-05-21T00:50:11.736Z,96673.94
2023-05-21T00:52:42.054Z,96673.94
2023-05-21T00:55:10.520Z,96685.78
2023-05-21T00:57:37.607Z,96685.19
2023-05-21T01:00:10.748Z,96675.56
2023-05-21T01:02:38.261Z,96678.28
2023-05-21T01:05:08.493Z,96674.00
2023-05-21T01:07:36.734Z,96667.97
2023-05-21T01:10:08.538Z,96667.56
2023-05-21T01:12:43.870Z,96675.09
2023-05-21T01:15:11.457Z,96666.44
2023-05-21T01:17:39.164Z,96668.34
2023-05-21T01:20:12.424Z,96657.78
2023-05-21T01:22:43.660Z,96650.50
2023-05-21T01:25:11.155Z,96665.09
2023-05-21T01:27:37.681Z,96659.00
2023-05-21T01:30:04.607Z,96651.91
2023-05-21T01:32:38.260Z,96656.16
2023-05-21T01:35:09.859Z,96664.75
2023-05-21T01:37:46.212Z,96660.41
2023-05-21T01:40:45.494Z,96658.75
2023-05-21T01:43:13.801Z,96663.19
2023-05-21T01:45:42.254Z,96656.03
2023-05-21T01:48:11.375Z,96656.25
2023-05-21T01:50:40.507Z,96644.91
2023-05-21T01:53:07.127Z,96655.91
2023-05-21T01:55:33.875Z,96656.56
2023-05-21T01:58:02.345Z,96656.78
2023-05-21T02:00:29.536Z,96655.13
2023-05-21T02:02:56.651Z,96654.13
2023-05-21T02:05:23.419Z,96653.34
2023-05-21T02:07:52.023Z,96658.59
2023-05-21T02:10:20.692Z,96665.34
2023-05-21T02:12:47.309Z,96661.78
2023-05-21T02:15:18.117Z,96653.22
2023-05-21T02:17:46.192Z,96653.22
2023-05-21T02:20:14.616Z,96654.03
2023-05-21T02:22:43.339Z,96646.69
2023-05-21T02:25:10.977Z,96654.31
2023-05-21T02:27:38.672Z,96644.91
2023-05-21T02:30:08.456Z,96652.44
2023-05-21T02:32:35.814Z,96643.47
2023-05-21T02:35:04.082Z,96647.78
2023-05-21T02:37:34.649Z,96652.06
2023-05-21T02:40:06.036Z,96647.25
2023-05-21T02:42:32.861Z,96632.19
2023-05-21T02:44:59.692Z,96643.78
2023-05-21T02:47:26.368Z,96631.38
2023-05-21T02:49:54.062Z,96631.81
2023-05-21T02:52:24.073Z,96632.63
2023-05-21T02:54:51.630Z,96638.13
2023-05-21T02:57:18.421Z,96646.44
2023-05-21T02:59:45.956Z,96629.16
2023-05-21T03:02:12.613Z,96640.41
2023-05-21T03:04:45.976Z,96644.25
2023-05-21T03:07:15.061Z,96636.31
2023-05-21T03:09:42.643Z,96629.22
2023-05-21T03:12:10.032Z,96630.22
2023-05-21T03:14:36.859Z,96630.03
2023-05-21T03:17:06.069Z,96632.88
2023-05-21T03:19:36.829Z,96627.41
2023-05-21T03:22:04.557Z,96632.69
2023-05-21T03:24:31.849Z,96636.38
2023-05-21T03:26:59.335Z,96635.53
2023-05-21T03:29:25.861Z,96630.69
2023-05-21T03:31:54.001Z,96639.63
2023-05-21T03:34:21.037Z,96639.41
2023-05-21T03:36:47.988Z,96639.59
2023-05-21T03:39:14.931Z,96641.66
2023-05-21T03:41:41.757Z,96639.22
2023-05-21T03:44:08.777Z,96628.84
2023-05-21T03:46:35.471Z,96635.53
2023-05-21T03:49:02.451Z,96629.47
2023-05-21T03:51:30.457Z,96633.94
2023-05-21T03:53:59.114Z,96625.41
2023-05-21T03:56:26.954Z,96643.09
2023-05-21T03:58:54.475Z,96640.06
2023-05-21T04:01:21.061Z,96637.59
2023-05-21T04:03:47.839Z,96646.56
2023-05-21T04:06:15.997Z,96643.09
2023-05-21T04:08:42.756Z,96639.81
2023-05-21T04:11:09.403Z,96651.22
2023-05-21T04:13:36.898Z,96651.22
2023-05-21T04:16:03.490Z,96648.59
2023-05-21T04:18:30.005Z,96650.63
2023-05-21T04:20:56.589Z,96649.59
2023-05-21T04:23:23.749Z,96642.88
2023-05-21T04:25:51.026Z,96642.47
2023-05-21T04:28:21.127Z,96649.22
2023-05-21T04:30:48.321Z,96654.25
2023-05-21T04:33:18.228Z,96649.78
2023-05-21T04:35:47.343Z,96651.19
2023-05-21T04:38:14.190Z,96649.56
2023-05-21T04:40:40.934Z,96654.19
2023-05-21T04:43:08.238Z,96659.44
2023-05-21T04:45:35.031Z,96641.53
2023-05-21T04:48:02.841Z,96650.03
2023-05-21T04:50:30.879Z,96650.84
2023-05-21T04:52:58.856Z,96660.84
2023-05-21T04:55:25.993Z,96666.69
2023-05-21T04:57:52.923Z,96659.78
2023-05-21T05:00:20.222Z,96668.28
2023-05-21T05:02:46.858Z,96657.88
2023-05-21T05:05:13.865Z,96655.91
2023-05-21T05:07:40.387Z,96658.41
2023-05-21T05:10:07.494Z,96662.94
2023-05-21T05:12:33.996Z,96649.72
2023-05-21T05:15:00.614Z,96652.50
2023-05-21T05:17:27.544Z,96644.88
2023-05-21T05:19:54.077Z,96640.31
2023-05-21T05:22:20.619Z,96639.69
2023-05-21T05:24:47.201Z,96650.50
2023-05-21T05:27:13.691Z,96648.19
2023-05-21T05:29:40.223Z,96639.66
2023-05-21T05:32:08.067Z,96645.31
2023-05-21T05:34:35.002Z,96654.53
2023-05-21T05:37:02.818Z,96649.59
2023-05-21T05:39:29.341Z,96651.09
2023-05-21T05:41:56.030Z,96653.16
2023-05-21T05:44:22.541Z,96653.38
2023-05-21T05:46:49.064Z,96645.22
2023-05-21T05:49:15.716Z,96655.16
2023-05-21T05:51:42.263Z,96658.91
2023-05-21T05:54:08.776Z,96652.72
2023-05-21T05:56:36.391Z,96665.13
2023-05-21T05:59:02.915Z,96665.53
2023-05-21T06:01:29.402Z,96664.00
2023-05-21T06:03:57.389Z,96651.00
2023-05-21T06:06:24.022Z,96653.25
2023-05-21T06:08:50.594Z,96658.81
2023-05-21T06:11:18.822Z,96654.88
2023-05-21T06:13:45.942Z,96661.88
2023-05-21T06:16:12.641Z,96656.28
2023-05-21T06:18:39.180Z,96657.94
2023-05-21T06:21:05.980Z,96647.06
2023-05-21T06:23:32.734Z,96656.03
2023-05-21T06:25:59.400Z,96654.16
2023-05-21T06:28:25.851Z,96659.63
2023-05-21T06:30:52.417Z,96654.19
2023-05-21T06:33:19.052Z,96660.75
2023-05-21T06:35:45.699Z,96653.47
2023-05-21T06:38:12.203Z,96654.72
2023-05-21T06:40:38.732Z,96657.19
2023-05-21T06:43:05.469Z,96651.84
2023-05-21T06:45:33.042Z,96660.56
2023-05-21T06:47:59.652Z,96661.41
2023-05-21T06:50:26.346Z,96650.06
2023-05-21T06:52:52.866Z,96656.66
2023-05-21T06:55:19.487Z,96661.88
2023-05-21T06:57:46.017Z,96661.13
2023-05-21T07:00:13.086Z,96652.59
2023-05-21T07:02:39.653Z,96658.38
2023-05-21T07:05:06.452Z,96659.56
2023-05-21T07:07:34.868Z,96668.03
2023-05-21T07:10:01.467Z,96668.94
2023-05-21T07:12:28.095Z,96663.63
2023-05-21T07:14:54.629Z,96665.50
2023-05-21T07:17:21.314Z,96657.13
2023-05-21T07:19:47.791Z,96656.81
2023-05-21T07:22:14.745Z,96651.00
2023-05-21T07:24:41.233Z,96649.94
2023-05-21T07:27:17.741Z,96662.84
2023-05-21T07:29:50.984Z,96652.75
2023-05-21T07:32:17.549Z,96659.63
2023-05-21T07:34:44.107Z,96649.69
2023-05-21T07:37:10.732Z,96651.13
2023-05-21T07:39:37.818Z,96651.06
2023-05-21T07:42:04.492Z,96646.66
2023-05-21T07:44:31.981Z,96649.53
2023-05-21T07:46:58.482Z,96652.53
2023-05-21T07:49:24.943Z,96634.53
2023-05-21T07:51:53.485Z,96653.34
2023-05-21T07:54:20.082Z,96658.69
2023-05-21T07:56:46.598Z,96644.75
2023-05-21T07:59:17.139Z,96651.22
2023-05-21T08:01:44.257Z,96648.66
2023-05-21T08:04:12.393Z,96649.03
2023-05-21T08:06:39.042Z,96645.16
2023-05-21T08:09:06.400Z,96653.03
2023-05-21T08:11:33.317Z,96647.72
2023-05-21T08:13:59.962Z,96639.53
2023-05-21T08:16:26.907Z,96646.78
2023-05-21T08:18:54.092Z,96652.63
2023-05-21T08:21:20.822Z,96646.38
2023-05-21T08:23:47.364Z,96632.28
2023-05-21T08:26:16.501Z,96647.81
2023-05-21T08:28:43.373Z,96645.38
2023-05-21T08:31:12.405Z,96638.34
2023-05-21T08:33:39.058Z,96645.22
2023-05-21T08:36:07.588Z,96642.09
2023-05-21T08:38:35.200Z,96635.38
2023-05-21T08:41:01.719Z,96634.19
2023-05-21T08:43:29.709Z,96629.13
2023-05-21T08:45:59.169Z,96623.53
2023-05-21T08:48:26.101Z,96627.16
2023-05-21T08:50:53.937Z,96622.34
2023-05-21T08:53:28.111Z,96628.56
2023-05-21T08:55:57.218Z,96622.75
2023-05-21T08:58:24.028Z,96615.53
2023-05-21T09:00:50.884Z,96632.66
2023-05-21T09:03:17.973Z,96623.59
2023-05-21T09:05:45.834Z,96626.78
2023-05-21T09:08:18.451Z,96617.69
2023-05-21T09:10:52.929Z,96617.66
2023-05-21T09:13:20.517Z,96615.22
2023-05-21T09:15:48.225Z,96614.44
2023-05-21T09:18:15.037Z,96624.66
2023-05-21T09:20:42.001Z,96619.91
2023-05-21T09:23:16.664Z,96611.63
2023-05-21T09:25:47.605Z,96615.94
2023-05-21T09:28:15.775Z,96617.81
2023-05-21T09:30:52.230Z,96611.91
2023-05-21T09:33:26.280Z,96603.88
2023-05-21T09:35:53.216Z,96606.53
2023-05-21T09:38:22.920Z,96600.63
2023-05-21T09:40:49.468Z,96595.25
2023-05-21T09:43:17.467Z,96582.34
2023-05-21T09:45:52.560Z,96604.41
2023-05-21T09:48:37.559Z,96600.03
2023-05-21T09:51:14.343Z,96597.59
2023-05-21T09:53:55.787Z,96598.13
2023-05-21T09:56:25.040Z,96599.16
2023-05-21T09:58:54.863Z,96594.03
2023-05-21T10:01:21.967Z,96589.41
2023-05-21T10:03:56.015Z,96597.50
2023-05-21T10:06:26.392Z,96595.94
2023-05-21T10:08:57.036Z,96575.22
2023-05-21T10:11:27.637Z,96587.56
2023-05-21T10:14:19.720Z,96594.53
2023-05-21T10:16:47.702Z,96587.03
2023-05-21T10:19:16.252Z,96590.63
2023-05-21T10:21:43.771Z,96592.41
2023-05-21T10:24:11.050Z,96594.25
2023-05-21T10:26:38.519Z,96584.81
2023-05-21T10:29:05.156Z,96579.31
2023-05-21T10:31:33.162Z,96581.25
2023-05-21T10:34:05.875Z,96575.19
2023-05-21T10:36:33.015Z,96578.31
2023-05-21T10:39:02.738Z,96584.59
2023-05-21T10:41:35.893Z,96578.16
2023-05-21T10:44:15.669Z,96586.13
2023-05-21T10:47:07.606Z,96569.63
2023-05-21T10:49:57.905Z,96570.78
2023-05-21T10:52:59.950Z,96566.56
2023-05-21T10:55:38.729Z,96571.63
2023-05-21T10:58:32.412Z,96574.47
2023-05-21T11:01:02.297Z,96571.97
2023-05-21T11:03:30.375Z,96583.72
2023-05-21T11:05:57.783Z,96561.19
2023-05-21T11:08:27.171Z,96566.69
2023-05-21T11:10:55.214Z,96562.19
2023-05-21T11:13:22.084Z,96560.63
2023-05-21T11:16:06.635Z,96569.44
2023-05-21T11:18:36.131Z,96562.56
2023-05-21T11:21:11.385Z,96562.69
2023-05-21T11:24:06.696Z,96568.50
2023-05-21T11:26:58.475Z,96572.59
2023-05-21T11:29:44.151Z,96547.50
2023-05-21T11:32:36.295Z,96557.69
2023-05-21T11:35:27.180Z,96556.44
2023-05-21T11:38:09.354Z,96557.31
2023-05-21T11:41:36.170Z,96566.25
2023-05-21T11:44:02.698Z,96551.50
2023-05-21T11:46:30.027Z,96558.16
2023-05-21T11:48:56.825Z,96556.75
2023-05-21T11:51:24.596Z,96552.47
2023-05-21T11:53:51.329Z,96559.81
2023-05-21T11:56:18.335Z,96550.06
2023-05-21T11:58:46.513Z,96559.38
2023-05-21T12:01:24.832Z,96561.44
2023-05-21T12:03:51.408Z,96555.78
2023-05-21T12:06:18.536Z,96547.63
2023-05-21T12:08:52.259Z,96560.91
2023-05-21T12:11:18.779Z,96551.56
2023-05-21T12:13:45.355Z,96549.88
2023-05-21T12:16:12.295Z,96549.69
2023-05-21T12:18:38.860Z,96542.03
2023-05-21T12:21:05.388Z,96548.81
2023-05-21T12:23:32.032Z,96542.53
2023-05-21T12:25:59.496Z,96544.19
2023-05-21T12:28:26.048Z,96542.38
2023-05-21T12:30:53.700Z,96542.06
2023-05-21T12:33:24.407Z,96536.47
2023-05-21T12:35:52.687Z,96538.16
2023-05-21T12:38:19.403Z,96543.72
2023-05-21T12:40:47.011Z,96540.94
2023-05-21T12:43:13.609Z,96542.16
2023-05-21T12:45:40.902Z,96549.41
2023-05-21T12:48:07.656Z,96546.00
2023-05-21T12:50:39.628Z,96548.59
2023-05-21T12:53:09.373Z,96539.38
2023-05-21T12:55:36.016Z,96531.88
2023-05-21T12:58:08.356Z,96534.44
2023-05-21T13:00:35.604Z,96537.34
2023-05-21T13:03:04.448Z,96545.66
2023-05-21T13:05:31.486Z,96544.03
2023-05-21T13:07:58.177Z,96543.56
2023-05-21T13:10:25.752Z,96541.34
2023-05-21T13:12:52.414Z,96533.13
2023-05-21T13:15:19.214Z,96531.84
2023-05-21T13:17:47.239Z,96536.72
2023-05-21T13:20:23.802Z,96536.19
2023-05-21T13:22:52.099Z,96543.69
2023-05-21T13:49:54.220Z,96542.03
2023-05-21T13:52:27.117Z,96549.03
2023-05-21T13:54:57.981Z,96541.13
2023-05-21T13:57:34.991Z,96535.47
2023-05-21T14:00:24.589Z,96536.41
2023-05-21T14:03:01.721Z,96541.38
2023-05-21T14:05:37.632Z,96535.16
2023-05-21T14:08:04.652Z,96534.84
2023-05-21T14:10:31.299Z,96529.09
2023-05-21T14:13:15.450Z,96523.38
2023-05-21T14:15:46.146Z,96527.59
2023-05-21T14:18:12.810Z,96516.31
2023-05-21T14:20:42.089Z,96518.75
2023-05-21T14:23:10.351Z,96520.44
2023-05-21T14:25:37.241Z,96506.69
2023-05-21T14:28:04.111Z,96509.34
2023-05-21T14:30:30.775Z,96514.69
2023-05-21T14:33:16.302Z,96524.66
2023-05-21T14:35:47.996Z,96522.28
2023-05-21T14:38:16.654Z,96524.28
2023-05-21T14:40:48.356Z,96535.28
2023-05-21T14:43:16.052Z,96512.69
2023-05-21T14:45:42.910Z,96524.69
2023-05-21T14:48:09.697Z,96525.78
2023-05-21T14:51:39.016Z,96535.56
2023-05-21T14:54:07.720Z,96530.72
2023-05-21T14:56:41.572Z,96522.56
2023-05-21T14:59:08.275Z,96528.16
2023-05-21T15:01:35.073Z,96527.94
2023-05-21T15:04:16.152Z,96529.38
2023-05-21T15:06:42.664Z,96526.91
2023-05-21T15:09:36.231Z,96521.13
2023-05-21T15:12:02.841Z,96523.56
2023-05-21T15:15:02.599Z,96528.16
2023-05-21T15:17:29.277Z,96513.38
2023-05-21T15:20:07.824Z,96509.59
2023-05-21T15:22:34.380Z,96516.44
2023-05-21T15:25:01.752Z,96509.06
2023-05-21T15:27:28.370Z,96503.75
2023-05-21T15:29:54.963Z,96496.75
2023-05-21T15:32:21.788Z,96505.66
2023-05-21T15:34:49.655Z,96503.97
2023-05-21T15:37:38.945Z,96504.22
2023-05-21T15:40:32.608Z,96506.00
2023-05-21T15:42:59.278Z,96500.81
2023-05-21T15:45:25.933Z,96497.94
2023-05-21T15:47:52.749Z,96498.25
2023-05-21T15:50:22.424Z,96491.00
2023-05-21T15:52:50.363Z,96496.34
2023-05-21T15:55:19.469Z,96495.25
2023-05-21T15:57:46.108Z,96493.28
2023-05-21T16:00:13.388Z,96488.84
2023-05-21T16:02:48.187Z,96490.91
2023-05-21T16:06:08.015Z,96493.88
2023-05-21T16:08:40.200Z,96478.50
2023-05-21T16:11:06.779Z,96475.78
2023-05-21T16:13:39.889Z,96493.22
2023-05-21T16:16:06.765Z,96493.09
2023-05-21T16:18:33.347Z,96486.84
2023-05-21T16:20:59.992Z,96482.00
2023-05-21T16:23:26.638Z,96488.84
2023-05-21T16:25:53.176Z,96491.69
2023-05-21T16:28:21.121Z,96488.28
2023-05-21T16:30:50.353Z,96482.94
2023-05-21T16:33:17.257Z,96489.00
2023-05-21T16:35:44.041Z,96469.34
2023-05-21T16:38:10.605Z,96471.81
2023-05-21T16:40:37.226Z,96486.84
2023-05-21T16:43:03.950Z,96474.72
2023-05-21T16:45:39.527Z,96470.00
2023-05-21T16:48:06.643Z,96480.72
2023-05-21T16:50:33.566Z,96481.63
2023-05-21T16:53:02.671Z,96484.81
2023-05-21T16:55:30.939Z,96480.25
2023-05-21T16:57:57.909Z,96487.09
2023-05-21T17:00:25.218Z,96494.25
2023-05-21T17:02:51.880Z,96483.84
2023-05-21T17:05:18.514Z,96489.19
2023-05-21T17:07:45.134Z,96479.34
2023-05-21T17:10:11.821Z,96483.59
2023-05-21T17:13:09.744Z,96485.31
2023-05-21T17:15:44.764Z,96481.72
2023-05-21T17:18:12.243Z,96483.06
2023-05-21T17:20:39.141Z,96478.78
2023-05-21T17:23:21.218Z,96480.13
2023-05-21T17:25:47.955Z,96482.53
2023-05-21T17:28:21.036Z,96470.50
2023-05-21T17:30:54.744Z,96481.22
2023-05-21T17:33:21.540Z,96471.84
2023-05-21T17:36:08.421Z,96493.66
2023-05-21T17:38:48.392Z,96483.50
2023-05-21T17:41:18.813Z,96493.41
2023-05-21T17:44:05.874Z,96491.56
2023-05-21T17:46:44.356Z,96498.03
2023-05-21T17:49:20.071Z,96489.50
2023-05-21T17:51:46.913Z,96486.53
2023-05-21T17:54:22.902Z,96507.22
2023-05-21T17:56:49.478Z,96502.63
2023-05-21T17:59:25.569Z,96511.81
2023-05-21T18:01:52.201Z,96507.50
2023-05-21T18:04:23.145Z,96512.06
2023-05-21T18:06:50.012Z,96522.28
2023-05-21T18:09:16.576Z,96522.81
2023-05-21T18:11:44.653Z,96515.56
2023-05-21T18:14:43.686Z,96526.84
2023-05-21T18:17:10.438Z,96521.19
2023-05-21T18:19:37.064Z,96523.91
2023-05-21T18:22:05.237Z,96533.00
2023-05-21T18:24:32.998Z,96520.09
2023-05-21T18:26:59.740Z,96524.91
2023-05-21T18:29:26.385Z,96538.31
2023-05-21T18:32:26.282Z,96534.81
2023-05-21T18:34:52.887Z,96525.16
2023-05-21T18:37:19.584Z,96537.72
2023-05-21T18:39:51.290Z,96533.44
2023-05-21T18:42:28.247Z,96537.19
2023-05-21T18:44:55.053Z,96533.41
2023-05-21T18:47:22.864Z,96534.13
2023-05-21T18:49:49.739Z,96539.47
2023-05-21T18:52:16.334Z,96535.34
2023-05-21T18:54:42.939Z,96541.78
2023-05-21T18:57:09.583Z,96531.25
2023-05-21T18:59:36.523Z,96532.03
2023-05-21T19:02:04.234Z,96547.56
2023-05-21T19:04:48.904Z,96548.56
2023-05-21T19:07:17.538Z,96542.34
2023-05-21T19:10:02.023Z,96552.72
2023-05-21T19:12:36.239Z,96559.06
2023-05-21T19:15:04.051Z,96555.25
2023-05-21T19:17:31.049Z,96561.06
2023-05-21T19:19:57.770Z,96557.81
2023-05-21T19:22:28.915Z,96557.31
2023-05-21T19:24:55.778Z,96567.69
2023-05-21T19:27:22.425Z,96562.38
2023-05-21T19:30:04.919Z,96554.31
2023-05-21T19:32:31.661Z,96557.44
2023-05-21T19:35:16.838Z,96559.47
2023-05-21T19:37:43.664Z,96561.53
2023-05-21T19:40:29.905Z,96579.16
2023-05-21T19:42:58.523Z,96577.06
2023-05-21T19:45:25.541Z,96568.91
2023-05-21T19:47:52.194Z,96589.22
2023-05-21T19:50:19.177Z,96576.19
2023-05-21T19:52:45.852Z,96588.31
2023-05-21T19:55:14.008Z,96586.16
2023-05-21T19:57:43.999Z,96589.53
2023-05-21T20:00:20.172Z,96584.50
2023-05-21T20:02:47.968Z,96580.47
2023-05-21T20:05:14.639Z,96591.66
2023-05-21T20:07:45.001Z,96595.63
2023-05-21T20:10:15.852Z,96601.69
2023-05-21T20:12:42.687Z,96584.09
2023-05-21T20:15:09.858Z,96580.06
2023-05-21T20:17:39.845Z,96590.00
2023-05-21T20:20:10.274Z,96587.84
2023-05-21T20:27:20.248Z,96601.31
2023-05-21T20:29:47.127Z,96593.75
2023-05-21T20:32:14.812Z,96586.22
2023-05-21T20:34:50.711Z,96593.47
2023-05-21T20:37:21.747Z,96595.59
2023-05-21T20:39:48.499Z,96597.59
2023-05-21T20:42:44.979Z,96597.84
2023-05-21T20:45:13.016Z,96600.09
2023-05-21T20:47:39.903Z,96592.69
2023-05-21T20:50:12.250Z,96604.38
2023-05-21T20:52:38.956Z,96591.22
2023-05-21T20:55:06.123Z,96591.63
2023-05-21T20:57:47.789Z,96600.47
2023-05-21T21:00:16.087Z,96610.84
2023-05-21T21:03:03.862Z,96605.63
2023-05-21T21:05:30.662Z,96609.59
2023-05-21T21:08:02.519Z,96613.94
2023-05-21T21:10:47.076Z,96622.00
2023-05-21T21:13:36.062Z,96619.13
2023-05-21T21:16:27.750Z,96630.34
2023-05-21T21:18:54.469Z,96631.28
2023-05-21T21:21:22.164Z,96630.72
2023-05-21T21:23:48.864Z,96625.13
2023-05-21T21:26:16.634Z,96635.84
2023-05-21T21:28:44.898Z,96621.69
2023-05-21T21:31:12.822Z,96633.88
2023-05-21T21:33:39.370Z,96629.25
2023-05-21T21:36:15.321Z,96622.81
2023-05-21T21:38:41.883Z,96623.28
2023-05-21T21:41:08.489Z,96617.25
2023-05-21T21:43:35.147Z,96626.16
2023-05-21T21:46:01.771Z,96615.75
2023-05-21T21:48:28.403Z,96613.34
2023-05-21T21:50:55.091Z,96632.91
2023-05-21T21:53:21.723Z,96623.56
2023-05-21T21:56:01.732Z,96629.72
2023-05-21T21:58:28.317Z,96634.66
2023-05-21T22:01:23.222Z,96630.13
2023-05-21T22:03:50.016Z,96626.31
2023-05-21T22:06:16.662Z,96627.59
2023-05-21T22:08:43.401Z,96625.50
2023-05-21T22:11:10.623Z,96620.41
2023-05-21T22:13:37.767Z,96622.72
2023-05-21T22:16:27.644Z,96634.63
2023-05-21T22:18:54.550Z,96631.75
2023-05-21T22:21:21.718Z,96636.47
2023-05-21T22:23:48.393Z,96622.38
2023-05-21T22:26:15.056Z,96627.34
2023-05-21T22:28:45.812Z,96629.66
2023-05-21T22:31:12.587Z,96630.91
2023-05-21T22:33:39.451Z,96626.88
2023-05-21T22:36:06.235Z,96639.00
2023-05-21T22:38:32.975Z,96630.78
2023-05-21T22:40:59.700Z,96621.19
2023-05-21T22:43:26.964Z,96632.75
2023-05-21T22:45:53.603Z,96636.19
2023-05-21T22:48:22.038Z,96633.31
2023-05-21T22:50:50.230Z,96635.38
2023-05-21T22:53:17.512Z,96635.84
2023-05-21T22:55:48.273Z,96635.75
2023-05-21T22:58:15.074Z,96637.47
2023-05-21T23:00:41.828Z,96623.69
2023-05-21T23:03:08.628Z,96636.84
2023-05-21T23:05:35.440Z,96628.50
2023-05-21T23:08:02.097Z,96623.50
2023-05-21T23:10:28.772Z,96632.44
2023-05-21T23:12:55.585Z,96628.72
2023-05-21T23:15:22.777Z,96618.66
2023-05-21T23:17:49.408Z,96627.94
2023-05-21T23:20:16.254Z,96626.84
2023-05-21T23:22:42.894Z,96627.97
2023-05-21T23:25:09.940Z,96619.72
2023-05-21T23:27:36.499Z,96626.44
2023-05-21T23:30:03.352Z,96621.19
2023-05-21T23:32:30.142Z,96618.84
2023-05-21T23:35:36.285Z,96630.59
2023-05-21T23:38:03.025Z,96634.28
2023-05-21T23:40:29.628Z,96631.03
2023-05-21T23:42:56.239Z,96637.53
2023-05-21T23:45:39.176Z,96629.06
2023-05-21T23:48:06.117Z,96626.84
2023-05-21T23:50:32.975Z,96617.06
2023-05-21T23:53:28.667Z,96627.56
2023-05-21T23:56:14.495Z,96626.63
2023-05-21T23:58:48.284Z,96621.53
